Time;durP1;ratioP1;P1;durP2;ratioP2;P2;SDS_P1;SDS_P2;PMS_P1;PMS_P2;Temp;Humidity;BMP_temperature;BMP_pressure;BME280_temperature;BME280_humidity;BME280_pressure;Samples;Min_cycle;Max_cycle;Signal;HPM_P1;HPM_P2
2023/06/05 00:02:54;;;;;;;16.63;15.13;;;;;;;-145.53;100.00;64590.91;6165070;28;20451;-65
2023/06/05 00:06:01;;;;;;;15.87;14.57;;;;;;;-145.53;100.00;64590.91;6193544;28;20446;-64
2023/06/05 00:09:13;;;;;;;15.10;13.90;;;;;;;-145.53;100.00;64590.91;6192114;28;20439;-63
2023/06/05 00:12:19;;;;;;;15.53;14.27;;;;;;;-145.53;100.00;64590.91;6175796;28;20443;-64
2023/06/05 00:15:25;;;;;;;14.73;13.53;;;;;;;-145.53;100.00;64590.91;6179008;28;20450;-65
2023/06/05 00:18:30;;;;;;;15.20;14.00;;;;;;;-145.53;100.00;64590.91;6177481;28;20442;-65
2023/06/05 00:21:40;;;;;;;14.90;13.60;;;;;;;-145.53;100.00;64590.91;6186202;28;20462;-65
2023/06/05 00:24:50;;;;;;;14.63;13.40;;;;;;;-145.53;100.00;64590.91;6183382;28;20809;-65
2023/06/05 00:27:59;;;;;;;15.30;13.90;;;;;;;-145.53;100.00;64590.91;6185375;28;20484;-63
2023/06/05 00:31:06;;;;;;;13.47;12.37;;;;;;;-145.53;100.00;64590.91;6182726;28;20432;-75
2023/06/05 00:34:11;;;;;;;15.30;14.00;;;;;;;-145.53;100.00;64590.91;6180228;28;20450;-73
2023/06/05 00:37:16;;;;;;;13.10;12.10;;;;;;;-145.53;100.00;64590.91;6172645;28;20447;-75
2023/06/05 00:40:24;;;;;;;11.70;10.60;;;;;;;-145.53;100.00;64590.91;6193206;28;20434;-75
2023/06/05 00:43:31;;;;;;;12.37;11.27;;;;;;;-145.53;100.00;64590.91;6191575;28;20479;-76
2023/06/05 00:46:37;;;;;;;9.77;8.93;;;;;;;-145.53;100.00;64590.91;6169744;28;20836;-75
2023/06/05 00:49:41;;;;;;;10.67;9.77;;;;;;;-145.53;100.00;64590.91;6176504;28;20486;-76
2023/06/05 00:52:47;;;;;;;10.80;9.90;;;;;;;-145.53;100.00;64590.91;6184504;28;20456;-75
2023/06/05 00:55:52;;;;;;;10.07;9.17;;;;;;;-145.53;100.00;64590.91;6171735;28;20429;-74
2023/06/05 00:58:58;;;;;;;9.73;8.93;;;;;;;-145.53;100.00;64590.91;6165402;28;20788;-75
2023/06/05 01:02:04;;;;;;;9.83;9.03;;;;;;;-145.53;100.00;64590.91;6189096;28;20980;-76
2023/06/05 01:05:10;;;;;;;8.60;7.90;;;;;;;-145.53;100.00;64590.91;6184790;28;20439;-74
2023/06/05 01:08:16;;;;;;;8.70;8.10;;;;;;;-145.53;100.00;64590.91;6189793;28;20447;-75
2023/06/05 01:11:29;;;;;;;7.87;7.27;;;;;;;-145.53;100.00;64590.91;6183178;28;20497;-73
2023/06/05 01:14:40;;;;;;;7.47;6.97;;;;;;;-145.53;100.00;64590.91;6189063;28;20434;-75
2023/06/05 01:17:47;;;;;;;7.43;6.93;;;;;;;-145.53;100.00;64590.91;6183588;28;20446;-74
2023/06/05 01:20:52;;;;;;;8.00;7.33;;;;;;;-145.53;100.00;64590.91;6178222;28;20446;-75
2023/06/05 01:23:59;;;;;;;7.87;7.27;;;;;;;-145.53;100.00;64590.91;6184373;28;20465;-74
2023/06/05 01:27:11;;;;;;;7.90;7.20;;;;;;;-145.53;100.00;64590.91;6186562;28;20435;-74
2023/06/05 01:30:24;;;;;;;7.23;6.53;;;;;;;-145.53;100.00;64590.91;6194780;28;20442;-74
2023/06/05 01:33:41;;;;;;;7.60;7.00;;;;;;;-145.53;100.00;64590.91;6177104;28;20931;-75
2023/06/05 01:36:45;;;;;;;8.00;7.30;;;;;;;-145.53;100.00;64590.91;6178868;28;20430;-74
2023/06/05 01:39:52;;;;;;;7.07;6.57;;;;;;;-145.53;100.00;64590.91;6179463;28;20514;-74
2023/06/05 01:42:57;;;;;;;6.90;6.30;;;;;;;-145.53;100.00;64590.91;6170514;28;20451;-73
2023/06/05 01:46:02;;;;;;;7.93;7.17;;;;;;;-145.53;100.00;64590.91;6178686;28;20454;-74
2023/06/05 01:49:05;;;;;;;7.10;6.50;;;;;;;-145.53;100.00;64590.91;6176145;28;20451;-74
2023/06/05 01:52:09;;;;;;;7.67;7.10;;;;;;;-145.53;100.00;64590.91;6187223;28;21001;-76
2023/06/05 01:55:16;;;;;;;7.13;6.63;;;;;;;-145.53;100.00;64590.91;6174183;28;20446;-74
2023/06/05 01:58:21;;;;;;;7.03;6.57;;;;;;;-145.53;100.00;64590.91;6193344;28;20422;-75
2023/06/05 02:01:24;;;;;;;7.80;7.20;;;;;;;-145.53;100.00;64590.91;6177795;28;20438;-74
2023/06/05 02:04:34;;;;;;;7.70;6.93;;;;;;;-145.53;100.00;64590.91;6183179;28;20542;-75
2023/06/05 02:07:43;;;;;;;7.40;6.77;;;;;;;-145.53;100.00;64590.91;6171168;28;20484;-75
2023/06/05 02:10:52;;;;;;;7.67;7.07;;;;;;;-145.53;100.00;64590.91;6178755;28;20419;-73
2023/06/05 02:14:05;;;;;;;6.90;6.40;;;;;;;-145.53;100.00;64590.91;6171999;28;20787;-75
2023/06/05 02:17:13;;;;;;;8.00;7.40;;;;;;;-145.53;100.00;64590.91;6168030;28;20954;-74
2023/06/05 02:20:19;;;;;;;8.00;7.40;;;;;;;-145.53;100.00;64590.91;6176673;28;20444;-75
2023/06/05 02:23:24;;;;;;;7.90;7.20;;;;;;;-145.53;100.00;64590.91;6191397;28;20542;-75
2023/06/05 02:26:34;;;;;;;8.00;7.40;;;;;;;-145.53;100.00;64590.91;6187085;28;20439;-74
2023/06/05 02:29:41;;;;;;;7.67;6.90;;;;;;;-145.53;100.00;64590.91;6173822;28;20572;-76
2023/06/05 02:32:48;;;;;;;7.93;7.33;;;;;;;-145.53;100.00;64590.91;6174340;28;20434;-74
2023/06/05 02:35:58;;;;;;;6.93;6.43;;;;;;;-145.53;100.00;64590.91;6182766;28;20431;-74
2023/06/05 02:39:07;;;;;;;8.40;7.70;;;;;;;-145.53;100.00;64590.91;6184225;28;20427;-75
2023/06/05 02:42:18;;;;;;;7.97;7.27;;;;;;;-145.53;100.00;64590.91;6160308;28;20558;-75
2023/06/05 02:45:25;;;;;;;7.47;6.77;;;;;;;-145.53;100.00;64590.91;6176778;28;20434;-76
2023/06/05 02:48:35;;;;;;;7.37;6.87;;;;;;;-145.53;100.00;64590.91;6174655;28;20431;-74
2023/06/05 02:51:44;;;;;;;7.37;6.67;;;;;;;-145.53;100.00;64590.91;6160852;28;20439;-74
2023/06/05 02:54:48;;;;;;;12.27;11.27;;;;;;;-145.53;100.00;64590.91;6170316;28;20434;-75
2023/06/05 02:57:57;;;;;;;14.67;13.40;;;;;;;-145.53;100.00;64590.91;6186645;28;20524;-75
2023/06/05 03:01:03;;;;;;;18.80;15.90;;;;;;;-145.53;100.00;64590.91;6190055;28;20596;-75
2023/06/05 03:04:12;;;;;;;19.40;17.60;;;;;;;-145.53;100.00;64590.91;6167253;28;20931;-75
2023/06/05 03:07:22;;;;;;;20.67;18.80;;;;;;;-145.53;100.00;64590.91;6177373;28;20431;-75
2023/06/05 03:10:32;;;;;;;21.17;19.20;;;;;;;-145.53;100.00;64590.91;6180325;28;20439;-74
2023/06/05 03:13:44;;;;;;;16.90;15.50;;;;;;;-145.53;100.00;64590.91;6175909;28;20434;-69
2023/06/05 03:16:53;;;;;;;18.33;16.53;;;;;;;-145.53;100.00;64590.91;6168964;28;20456;-71
2023/06/05 03:20:01;;;;;;;24.57;22.53;;;;;;;-145.53;100.00;64590.91;6189359;28;20883;-76
2023/06/05 03:23:08;;;;;;;22.77;20.80;;;;;;;-145.53;100.00;64590.91;6183630;28;20996;-74
2023/06/05 03:26:13;;;;;;;17.53;15.43;;;;;;;-145.53;100.00;64590.91;6176166;28;20490;-75
2023/06/05 03:29:24;;;;;;;19.57;16.97;;;;;;;-145.53;100.00;64590.91;6193679;28;20838;-74
2023/06/05 03:32:32;;;;;;;20.87;18.83;;;;;;;-145.53;100.00;64590.91;6188985;28;20450;-75
2023/06/05 03:35:40;;;;;;;15.73;14.10;;;;;;;-145.53;100.00;64590.91;6183922;28;20431;-76
2023/06/05 03:38:45;;;;;;;16.17;14.47;;;;;;;-145.53;100.00;64590.91;6169687;28;20451;-67
2023/06/05 03:41:52;;;;;;;18.30;16.43;;;;;;;-145.53;100.00;64590.91;6185177;28;20473;-68
2023/06/05 03:45:05;;;;;;;13.90;12.60;;;;;;;-145.53;100.00;64590.91;6197014;28;20442;-68
2023/06/05 03:48:15;;;;;;;18.03;13.13;;;;;;;-145.53;100.00;64590.91;6180704;28;20995;-68
2023/06/05 03:51:20;;;;;;;20.37;12.07;;;;;;;-145.53;100.00;64590.91;6216665;28;20442;-68
2023/06/05 03:54:27;;;;;;;15.80;12.33;;;;;;;-145.53;100.00;64590.91;6196852;28;20441;-67
2023/06/05 03:57:33;;;;;;;16.10;10.97;;;;;;;-145.53;100.00;64590.91;6188268;28;20790;-67
2023/06/05 04:00:42;;;;;;;13.73;11.10;;;;;;;-145.53;100.00;64590.91;6176761;28;20578;-68
2023/06/05 04:03:50;;;;;;;13.37;11.50;;;;;;;-145.53;100.00;64590.91;6175904;28;20463;-68
2023/06/05 04:06:57;;;;;;;20.90;11.90;;;;;;;-145.53;100.00;64590.91;6173601;28;20577;-68
2023/06/05 04:10:03;;;;;;;15.67;12.37;;;;;;;-145.53;100.00;64590.91;6185899;28;20446;-67
2023/06/05 04:13:07;;;;;;;19.90;11.80;;;;;;;-145.53;100.00;64590.91;6173816;28;20796;-68
2023/06/05 04:16:18;;;;;;;16.40;11.50;;;;;;;-145.53;100.00;64590.91;6186791;28;20442;-69
2023/06/05 04:19:27;;;;;;;12.03;10.20;;;;;;;-145.53;100.00;64590.91;6196909;28;20456;-68
2023/06/05 04:22:38;;;;;;;15.73;10.97;;;;;;;-145.53;100.00;64590.91;6188309;28;20442;-66
2023/06/05 04:25:49;;;;;;;14.90;10.77;;;;;;;-145.53;100.00;64590.91;6191233;28;20834;-66
2023/06/05 04:29:02;;;;;;;22.53;19.97;;;;;;;-145.53;100.00;64590.91;6196928;28;20804;-66
2023/06/05 04:32:16;;;;;;;22.17;18.73;;;;;;;-145.53;100.00;64590.91;6196530;28;20446;-67
2023/06/05 04:35:29;;;;;;;24.90;19.53;;;;;;;-145.53;100.00;64590.91;6186262;28;20438;-67
2023/06/05 04:38:38;;;;;;;29.50;23.87;;;;;;;-145.53;100.00;64590.91;6196200;28;20430;-67
2023/06/05 04:41:46;;;;;;;23.33;20.80;;;;;;;-145.53;100.00;64590.91;6196169;28;20422;-67
2023/06/05 04:45:21;;;;;;;25.80;22.00;;;;;;;-145.53;100.00;64590.91;6195282;28;20445;-69
2023/06/05 04:48:36;;;;;;;23.70;19.83;;;;;;;-145.53;100.00;64590.91;6179234;28;20458;-67
2023/06/05 04:51:47;;;;;;;24.77;19.90;;;;;;;-145.53;100.00;64590.91;6172563;28;20443;-68
2023/06/05 04:54:57;;;;;;;19.87;17.50;;;;;;;-145.53;100.00;64590.91;6172448;28;20430;-68
2023/06/05 04:58:09;;;;;;;49.40;17.70;;;;;;;-145.53;100.00;64590.91;6162496;28;20858;-69
2023/06/05 05:01:25;;;;;;;21.47;15.00;;;;;;;-145.53;100.00;64590.91;6172735;28;20434;-68
2023/06/05 05:04:42;;;;;;;15.70;14.10;;;;;;;-145.53;100.00;64590.91;6172180;28;20512;-69
2023/06/05 05:07:52;;;;;;;14.80;13.50;;;;;;;-145.53;100.00;64590.91;6172048;28;20774;-67
2023/06/05 05:11:02;;;;;;;15.03;13.40;;;;;;;-145.53;100.00;64590.91;6165876;28;20832;-69
2023/06/05 05:14:12;;;;;;;18.33;12.83;;;;;;;-145.53;100.00;64590.91;6171690;28;20419;-68
2023/06/05 05:17:23;;;;;;;16.80;12.40;;;;;;;-145.53;100.00;64590.91;6173379;28;20459;-68
2023/06/05 05:20:35;;;;;;;13.27;12.17;;;;;;;-145.53;100.00;64590.91;6185543;28;20512;-68
2023/06/05 05:23:49;;;;;;;14.53;13.10;;;;;;;-145.53;100.00;64590.91;6195801;28;20972;-67
2023/06/05 05:26:56;;;;;;;17.53;13.20;;;;;;;-145.53;100.00;64590.91;6196296;28;20423;-67
2023/06/05 05:30:07;;;;;;;13.83;12.50;;;;;;;-145.53;100.00;64590.91;6195825;28;20446;-66
2023/06/05 05:33:16;;;;;;;14.70;13.07;;;;;;;-145.53;100.00;64590.91;6161289;28;20451;-67
2023/06/05 05:36:36;;;;;;;13.30;12.13;;;;;;;-145.53;100.00;64590.91;6171777;28;20454;-68
2023/06/05 05:39:45;;;;;;;13.07;12.00;;;;;;;-145.53;100.00;64590.91;6171606;28;20431;-68
2023/06/05 05:42:59;;;;;;;12.93;11.57;;;;;;;-145.53;100.00;64590.91;6163702;28;20928;-68
2023/06/05 05:46:15;;;;;;;12.93;11.70;;;;;;;-145.53;100.00;64590.91;6170783;28;20439;-68
2023/06/05 05:49:26;;;;;;;12.40;11.20;;;;;;;-145.53;100.00;64590.91;6189850;28;20445;-68
2023/06/05 05:52:35;;;;;;;11.87;10.67;;;;;;;-145.53;100.00;64590.91;6195933;28;20434;-68
2023/06/05 05:55:47;;;;;;;14.70;10.50;;;;;;;-145.53;100.00;64590.91;6184451;28;20437;-68
2023/06/05 05:59:01;;;;;;;14.03;12.30;;;;;;;-145.53;100.00;64590.91;6195979;28;20469;-68
2023/06/05 06:02:15;;;;;;;16.57;13.03;;;;;;;-145.53;100.00;64590.91;6195033;28;20913;-67
2023/06/05 06:05:21;;;;;;;15.90;11.50;;;;;;;-145.53;100.00;64590.91;6189273;28;20536;-68
2023/06/05 06:08:35;;;;;;;12.33;11.20;;;;;;;-145.53;100.00;64590.91;6188377;28;20459;-68
2023/06/05 06:11:47;;;;;;;12.87;11.57;;;;;;;-145.53;100.00;64590.91;6195831;28;20438;-67
2023/06/05 06:14:51;;;;;;;12.50;11.20;;;;;;;-145.53;100.00;64590.91;6195374;28;20430;-68
2023/06/05 06:17:57;;;;;;;13.00;11.67;;;;;;;-145.53;100.00;64590.91;6177964;28;20455;-68
2023/06/05 06:21:06;;;;;;;13.03;11.77;;;;;;;-145.53;100.00;64590.91;6187777;28;20444;-69
2023/06/05 06:24:19;;;;;;;12.60;11.40;;;;;;;-145.53;100.00;64590.91;6220043;28;20441;-67
2023/06/05 06:27:32;;;;;;;11.90;10.87;;;;;;;-145.53;100.00;64590.91;6219938;28;20426;-68
2023/06/05 06:30:42;;;;;;;12.27;11.20;;;;;;;-145.53;100.00;64590.91;6208348;28;21061;-68
2023/06/05 06:33:54;;;;;;;12.87;11.67;;;;;;;-145.53;100.00;64590.91;6219451;28;20437;-68
2023/06/05 06:37:07;;;;;;;16.67;12.30;;;;;;;-145.53;100.00;64590.91;6219808;28;20422;-69
2023/06/05 06:40:21;;;;;;;15.30;13.70;;;;;;;-145.53;100.00;64590.91;6209529;28;20587;-68
2023/06/05 06:43:32;;;;;;;13.80;12.50;;;;;;;-145.53;100.00;64590.91;6219485;28;20940;-68
2023/06/05 06:46:43;;;;;;;15.10;12.83;;;;;;;-145.53;100.00;64590.91;6219195;28;20441;-67
2023/06/05 06:49:52;;;;;;;14.27;12.77;;;;;;;-145.53;100.00;64590.91;6189363;28;20532;-67
2023/06/05 06:53:05;;;;;;;15.67;14.00;;;;;;;-145.53;100.00;64590.91;6160207;28;20443;-68
2023/06/05 06:56:17;;;;;;;14.70;13.30;;;;;;;-145.53;100.00;64590.91;6171086;28;20463;-68
2023/06/05 06:59:23;;;;;;;15.97;13.47;;;;;;;-145.53;100.00;64590.91;6182137;28;20829;-68
2023/06/05 07:02:30;;;;;;;14.47;13.20;;;;;;;-145.53;100.00;64590.91;6192078;28;20453;-69
2023/06/05 07:05:37;;;;;;;15.33;13.93;;;;;;;-145.53;100.00;64590.91;6192427;28;20485;-69
2023/06/05 07:08:43;;;;;;;15.57;14.07;;;;;;;-145.53;100.00;64590.91;6182310;28;20908;-73
2023/06/05 07:11:55;;;;;;;17.13;15.63;;;;;;;-145.53;100.00;64590.91;6174323;28;20952;-74
2023/06/05 07:15:08;;;;;;;16.50;14.90;;;;;;;-145.53;100.00;64590.91;6163416;28;20435;-74
2023/06/05 07:18:15;;;;;;;18.03;16.43;;;;;;;-145.53;100.00;64590.91;6173934;28;20419;-73
2023/06/05 07:21:30;;;;;;;17.43;15.67;;;;;;;-145.53;100.00;64590.91;6174667;28;20419;-72
2023/06/05 07:24:41;;;;;;;18.13;16.27;;;;;;;-145.53;100.00;64590.91;6173496;28;20474;-73
2023/06/05 07:27:52;;;;;;;15.83;14.43;;;;;;;-145.53;100.00;64590.91;6163423;28;20816;-74
2023/06/05 07:31:03;;;;;;;16.33;14.93;;;;;;;-145.53;100.00;64590.91;6173510;28;20423;-73
2023/06/05 07:34:12;;;;;;;16.80;15.17;;;;;;;-145.53;100.00;64590.91;6173728;28;20423;-71
2023/06/05 07:37:23;;;;;;;16.87;15.17;;;;;;;-145.53;100.00;64590.91;6163616;28;20811;-69
2023/06/05 07:40:31;;;;;;;15.60;14.20;;;;;;;-145.53;100.00;64590.91;6173005;28;20476;-71
2023/06/05 07:43:41;;;;;;;15.57;14.17;;;;;;;-145.53;100.00;64590.91;6202360;28;20444;-73
2023/06/05 07:46:52;;;;;;;15.57;13.93;;;;;;;-145.53;100.00;64590.91;6198504;28;20947;-72
2023/06/05 07:50:03;;;;;;;17.00;15.40;;;;;;;-145.53;100.00;64590.91;6165505;28;20465;-72
2023/06/05 07:53:12;;;;;;;16.63;14.93;;;;;;;-145.53;100.00;64590.91;6173034;28;20423;-74
2023/06/05 07:56:28;;;;;;;17.17;15.60;;;;;;;-145.53;100.00;64590.91;6173685;28;20797;-74
2023/06/05 07:59:38;;;;;;;16.27;14.77;;;;;;;-145.53;100.00;64590.91;6169482;28;20534;-71
2023/06/05 08:02:45;;;;;;;15.80;14.20;;;;;;;-145.53;100.00;64590.91;6166956;28;20454;-74
2023/06/05 08:05:54;;;;;;;14.43;13.20;;;;;;;-145.53;100.00;64590.91;6175211;28;20474;-73
2023/06/05 08:09:02;;;;;;;14.53;13.13;;;;;;;-145.53;100.00;64590.91;6173767;28;20899;-74
2023/06/05 08:12:15;;;;;;;14.97;13.37;;;;;;;-145.53;100.00;64590.91;6161942;28;20458;-73
2023/06/05 08:15:25;;;;;;;14.20;13.07;;;;;;;-145.53;100.00;64590.91;6173100;28;20431;-73
2023/06/05 08:18:37;;;;;;;14.63;13.33;;;;;;;-145.53;100.00;64590.91;6173076;28;20510;-75
2023/06/05 08:21:49;;;;;;;14.80;13.30;;;;;;;-145.53;100.00;64590.91;6172939;28;20454;-75
2023/06/05 08:24:59;;;;;;;13.50;12.30;;;;;;;-145.53;100.00;64590.91;6162311;28;20439;-73
2023/06/05 08:28:04;;;;;;;14.77;13.47;;;;;;;-145.53;100.00;64590.91;6172639;28;20502;-74
2023/06/05 08:31:18;;;;;;;15.57;14.07;;;;;;;-145.53;100.00;64590.91;6172781;28;20429;-75
2023/06/05 08:34:27;;;;;;;15.27;13.90;;;;;;;-145.53;100.00;64590.91;6167410;28;20556;-74
2023/06/05 08:37:41;;;;;;;14.80;13.33;;;;;;;-145.53;100.00;64590.91;6167445;28;21001;-75
2023/06/05 08:40:50;;;;;;;15.00;13.70;;;;;;;-145.53;100.00;64590.91;6172716;28;20427;-76
2023/06/05 08:44:02;;;;;;;13.50;12.40;;;;;;;-145.53;100.00;64590.91;6172832;28;20427;-74
2023/06/05 08:47:11;;;;;;;13.03;11.73;;;;;;;-145.53;100.00;64590.91;6163631;28;20908;-74
2023/06/05 08:50:20;;;;;;;12.90;11.77;;;;;;;-145.53;100.00;64590.91;6179678;28;20576;-75
2023/06/05 08:53:30;;;;;;;13.23;12.10;;;;;;;-145.53;100.00;64590.91;6195931;28;20434;-76
2023/06/05 08:56:41;;;;;;;13.40;12.10;;;;;;;-145.53;100.00;64590.91;6195947;28;20429;-73
2023/06/05 08:59:52;;;;;;;14.47;13.00;;;;;;;-145.53;100.00;64590.91;6185745;28;20441;-75
2023/06/05 09:03:05;;;;;;;12.23;11.03;;;;;;;-145.53;100.00;64590.91;6195565;28;20449;-73
2023/06/05 09:06:17;;;;;;;12.53;11.20;;;;;;;-145.53;100.00;64590.91;6172481;28;20448;-74
2023/06/05 09:09:26;;;;;;;12.90;11.60;;;;;;;-145.53;100.00;64590.91;6162388;28;20470;-74
2023/06/05 09:12:32;;;;;;;12.80;11.70;;;;;;;-145.53;100.00;64590.91;6181738;28;20454;-76
2023/06/05 09:15:40;;;;;;;12.40;11.20;;;;;;;-145.53;100.00;64590.91;6196460;28;20422;-75
2023/06/05 09:19:02;;;;;;;13.13;11.83;;;;;;;-145.53;100.00;64590.91;6194912;28;20432;-74
2023/06/05 09:22:12;;;;;;;11.23;10.23;;;;;;;-145.53;100.00;64590.91;6170626;28;20450;-77
2023/06/05 09:25:22;;;;;;;12.30;10.30;;;;;;;-145.53;100.00;64590.91;6196531;28;20457;-77
2023/06/05 09:28:31;;;;;;;13.60;10.00;;;;;;;-145.53;100.00;64590.91;6194293;28;20450;-73
2023/06/05 09:31:43;;;;;;;10.27;9.17;;;;;;;-145.53;100.00;64590.91;6199902;28;20473;-73
2023/06/05 09:35:05;;;;;;;11.37;10.37;;;;;;;-145.53;100.00;64590.91;6216055;28;20453;-78
2023/06/05 09:38:32;;;;;;;11.57;10.40;;;;;;;-145.53;100.00;64590.91;6221462;28;20422;-75
2023/06/05 09:41:51;;;;;;;11.10;10.10;;;;;;;-145.53;100.00;64590.91;6213970;28;20443;-74
2023/06/05 09:45:04;;;;;;;17.07;11.33;;;;;;;-145.53;100.00;64590.91;6161278;28;20443;-70
2023/06/05 09:48:17;;;;;;;15.83;11.70;;;;;;;-145.53;100.00;64590.91;6177037;28;20435;-70
2023/06/05 09:51:26;;;;;;;14.30;9.73;;;;;;;-145.53;100.00;64590.91;6182696;28;20808;-70
2023/06/05 09:54:35;;;;;;;15.30;10.90;;;;;;;-145.53;100.00;64590.91;6190569;28;20942;-71
2023/06/05 09:57:44;;;;;;;11.77;10.57;;;;;;;-145.53;100.00;64590.91;6181179;28;20458;-69
2023/06/05 10:00:52;;;;;;;11.33;10.13;;;;;;;-145.53;100.00;64590.91;6195838;28;20434;-70
2023/06/05 10:04:13;;;;;;;12.23;9.53;;;;;;;-145.53;100.00;64590.91;6195542;28;20438;-70
2023/06/05 10:07:34;;;;;;;10.50;9.50;;;;;;;-145.53;100.00;64590.91;6186630;28;20454;-71
2023/06/05 10:10:51;;;;;;;11.17;10.07;;;;;;;-145.53;100.00;64590.91;6195558;28;20534;-74
2023/06/05 10:14:03;;;;;;;11.93;9.50;;;;;;;-145.53;100.00;64590.91;6195955;28;20921;-72
2023/06/05 10:17:14;;;;;;;11.03;9.90;;;;;;;-145.53;100.00;64590.91;6190960;28;20434;-73
2023/06/05 10:20:27;;;;;;;10.37;9.30;;;;;;;-145.53;100.00;64590.91;6167250;28;20442;-72
2023/06/05 10:23:43;;;;;;;11.70;10.47;;;;;;;-145.53;100.00;64590.91;6171306;28;20442;-71
2023/06/05 10:27:15;;;;;;;11.90;10.80;;;;;;;-145.53;100.00;64590.91;6181409;28;20445;-72
2023/06/05 10:31:03;;;;;;;12.80;10.20;;;;;;;-145.53;100.00;64590.91;6184920;28;20473;-71
2023/06/05 10:34:25;;;;;;;13.00;10.63;;;;;;;-145.53;100.00;64590.91;6183835;28;20451;-72
2023/06/05 10:37:57;;;;;;;11.00;10.00;;;;;;;-145.53;100.00;64590.91;6182115;28;20435;-71
2023/06/05 10:41:07;;;;;;;10.90;9.90;;;;;;;-145.53;100.00;64590.91;6174001;28;20442;-64
2023/06/05 10:44:17;;;;;;;9.90;8.90;;;;;;;-145.53;100.00;64590.91;6186672;28;20438;-65
2023/06/05 10:47:59;;;;;;;10.60;9.70;;;;;;;-145.53;100.00;64590.91;6183945;28;20447;-64
2023/06/05 10:51:40;;;;;;;10.93;9.93;;;;;;;-145.53;100.00;64590.91;6219499;28;20421;-65
2023/06/05 10:54:57;;;;;;;10.77;9.43;;;;;;;-145.53;100.00;64590.91;6210069;28;20529;-65
2023/06/05 10:58:10;;;;;;;10.47;9.47;;;;;;;-145.53;100.00;64590.91;6194498;28;21020;-63
2023/06/05 11:01:19;;;;;;;11.70;10.03;;;;;;;-145.53;100.00;64590.91;6194604;28;20552;-63
2023/06/05 11:04:24;;;;;;;10.70;9.67;;;;;;;-145.53;100.00;64590.91;6170946;28;20458;-66
2023/06/05 11:07:34;;;;;;;9.80;9.00;;;;;;;-145.53;100.00;64590.91;6179992;28;20450;-64
2023/06/05 11:11:06;;;;;;;11.23;10.13;;;;;;;-145.53;100.00;64590.91;6181159;28;20782;-63
2023/06/05 11:14:17;;;;;;;10.10;9.30;;;;;;;-145.53;100.00;64590.91;6171175;28;20458;-64
2023/06/05 11:17:33;;;;;;;11.77;10.50;;;;;;;-145.53;100.00;64590.91;6164033;28;20544;-63
2023/06/05 11:20:56;;;;;;;10.57;9.77;;;;;;;-145.53;100.00;64590.91;6189900;28;20453;-62
2023/06/05 11:24:20;;;;;;;10.20;9.37;;;;;;;-145.53;100.00;64590.91;6182650;28;20451;-63
2023/06/05 11:27:45;;;;;;;10.47;9.57;;;;;;;-145.53;100.00;64590.91;6159571;28;20455;-63
2023/06/05 11:31:00;;;;;;;11.23;10.23;;;;;;;-145.53;100.00;64590.91;6169826;28;20419;-64
2023/06/05 11:34:18;;;;;;;10.83;9.93;;;;;;;-145.53;100.00;64590.91;6169936;28;20431;-64
2023/06/05 11:37:23;;;;;;;10.47;9.63;;;;;;;-145.53;100.00;64590.91;6165148;28;21037;-63
2023/06/05 11:40:33;;;;;;;10.80;9.90;;;;;;;-145.53;100.00;64590.91;6164505;28;20493;-63
2023/06/05 11:43:47;;;;;;;11.67;10.50;;;;;;;-145.53;100.00;64590.91;6169839;28;20424;-64
2023/06/05 11:46:59;;;;;;;10.80;9.80;;;;;;;-145.53;100.00;64590.91;6170379;28;20454;-64
2023/06/05 11:50:17;;;;;;;11.97;10.77;;;;;;;-145.53;100.00;64590.91;6163025;28;20435;-70
2023/06/05 11:53:24;;;;;;;10.83;9.87;;;;;;;-145.53;100.00;64590.91;6180939;28;20442;-69
2023/06/05 11:56:30;;;;;;;11.27;10.20;;;;;;;-145.53;100.00;64590.91;6195107;28;20492;-69
2023/06/05 11:59:38;;;;;;;10.73;9.83;;;;;;;-145.53;100.00;64590.91;6173224;28;20466;-70
2023/06/05 12:02:46;;;;;;;10.57;9.67;;;;;;;-145.53;100.00;64590.91;6162463;28;20451;-70
2023/06/05 12:05:54;;;;;;;10.10;9.10;;;;;;;-145.53;100.00;64590.91;6173411;28;20435;-70
2023/06/05 12:09:11;;;;;;;10.13;9.23;;;;;;;-145.53;100.00;64590.91;6173089;28;20446;-70
2023/06/05 12:12:18;;;;;;;9.73;8.93;;;;;;;-145.53;100.00;64590.91;6162585;28;20461;-69
2023/06/05 12:15:27;;;;;;;9.63;8.80;;;;;;;-145.53;100.00;64590.91;6172811;28;20450;-70
2023/06/05 12:18:37;;;;;;;9.23;8.47;;;;;;;-145.53;100.00;64590.91;6180037;28;20437;-69
2023/06/05 12:21:45;;;;;;;10.07;9.17;;;;;;;-145.53;100.00;64590.91;6197080;28;20433;-69
2023/06/05 12:24:54;;;;;;;8.73;8.03;;;;;;;-145.53;100.00;64590.91;6165586;28;20820;-71
2023/06/05 12:28:21;;;;;;;8.80;7.93;;;;;;;-145.53;100.00;64590.91;6178053;28;20932;-69
2023/06/05 12:31:39;;;;;;;9.73;8.40;;;;;;;-145.53;100.00;64590.91;6172661;28;20450;-70
2023/06/05 12:34:55;;;;;;;9.60;8.30;;;;;;;-145.53;100.00;64590.91;6166531;28;20875;-68
2023/06/05 12:38:10;;;;;;;11.83;8.60;;;;;;;-145.53;100.00;64590.91;6172756;28;20467;-69
2023/06/05 12:41:23;;;;;;;13.10;8.73;;;;;;;-145.53;100.00;64590.91;6174712;28;20471;-70
2023/06/05 12:44:37;;;;;;;8.43;7.53;;;;;;;-145.53;100.00;64590.91;6172079;28;20795;-71
2023/06/05 12:47:48;;;;;;;8.77;7.90;;;;;;;-145.53;100.00;64590.91;6162640;28;20862;-69
2023/06/05 12:51:03;;;;;;;9.00;8.13;;;;;;;-145.53;100.00;64590.91;6196668;28;20513;-70
2023/06/05 12:54:19;;;;;;;8.40;7.60;;;;;;;-145.53;100.00;64590.91;6196653;28;20472;-69
2023/06/05 12:57:29;;;;;;;8.60;7.50;;;;;;;-145.53;100.00;64590.91;6192119;28;20453;-69
2023/06/05 13:00:41;;;;;;;8.23;7.43;;;;;;;-145.53;100.00;64590.91;6190760;28;20457;-70
2023/06/05 13:03:52;;;;;;;8.30;7.40;;;;;;;-145.53;100.00;64590.91;6195337;28;20924;-69
2023/06/05 13:07:02;;;;;;;8.53;7.80;;;;;;;-145.53;100.00;64590.91;6196841;28;20418;-69
2023/06/05 13:10:11;;;;;;;7.33;6.67;;;;;;;-145.53;100.00;64590.91;6185723;28;20438;-69
2023/06/05 13:13:22;;;;;;;8.20;7.30;;;;;;;-145.53;100.00;64590.91;6196557;28;20431;-70
2023/06/05 13:16:33;;;;;;;8.37;7.57;;;;;;;-145.53;100.00;64590.91;6196240;28;20468;-70
2023/06/05 13:19:42;;;;;;;7.80;7.00;;;;;;;-145.53;100.00;64590.91;6180818;28;20496;-71
2023/06/05 13:22:51;;;;;;;16.50;11.37;;;;;;;-145.53;100.00;64590.91;6163974;28;20574;-70
2023/06/05 13:25:59;;;;;;;11.30;9.70;;;;;;;-145.53;100.00;64590.91;6182425;28;20457;-67
2023/06/05 13:29:06;;;;;;;10.87;9.43;;;;;;;-145.53;100.00;64590.91;6191855;28;20484;-68
2023/06/05 13:32:11;;;;;;;10.67;9.57;;;;;;;-145.53;100.00;64590.91;6178217;28;20922;-67
2023/06/05 13:35:19;;;;;;;10.10;9.20;;;;;;;-145.53;100.00;64590.91;6186184;28;20439;-68
2023/06/05 13:38:35;;;;;;;10.40;9.60;;;;;;;-145.53;100.00;64590.91;6171849;28;20420;-69
2023/06/05 13:41:43;;;;;;;9.83;8.93;;;;;;;-145.53;100.00;64590.91;6180330;28;20484;-69
2023/06/05 13:44:48;;;;;;;10.20;9.10;;;;;;;-145.53;100.00;64590.91;6169340;28;20508;-68
2023/06/05 13:47:58;;;;;;;11.20;9.57;;;;;;;-145.53;100.00;64590.91;6195286;28;20452;-68
2023/06/05 13:51:07;;;;;;;11.00;10.00;;;;;;;-145.53;100.00;64590.91;6195981;28;20472;-69
2023/06/05 13:54:18;;;;;;;13.60;11.40;;;;;;;-145.53;100.00;64590.91;6193120;28;20423;-68
2023/06/05 13:57:28;;;;;;;13.60;11.80;;;;;;;-145.53;100.00;64590.91;6189949;28;20442;-70
2023/06/05 14:00:34;;;;;;;15.13;13.27;;;;;;;-145.53;100.00;64590.91;6195920;28;20468;-69
2023/06/05 14:03:45;;;;;;;18.00;14.00;;;;;;;-145.53;100.00;64590.91;6177657;28;20536;-68
2023/06/05 14:06:58;;;;;;;20.90;16.73;;;;;;;-145.53;100.00;64590.91;6161012;28;20477;-70
2023/06/05 14:10:09;;;;;;;38.87;33.17;;;;;;;-145.53;100.00;64590.91;6171216;28;20450;-63
2023/06/05 14:13:22;;;;;;;126.33;113.53;;;;;;;-145.53;100.00;64590.91;6171178;28;20426;-64
2023/06/05 14:16:34;;;;;;;94.50;84.40;;;;;;;-145.53;100.00;64590.91;6171189;28;20451;-70